Time;durP1;ratioP1;P1;durP2;ratioP2;P2;SDS_P1;SDS_P2;PMS_P1;PMS_P2;Temp;Humidity;BMP_temperature;BMP_pressure;BME280_temperature;BME280_humidity;BME280_pressure;Samples;Min_cycle;Max_cycle;Signal;HPM_P1;HPM_P2
2021/10/28 00:13:18;;;;;;;35.45;18.45;;;;;;;8.32;100.00;101887.59;5013066;28;20042;-63
2021/10/28 00:15:53;;;;;;;33.03;17.40;;;;;;;8.29;100.00;101884.88;5012840;28;20477;-61
2021/10/28 00:18:26;;;;;;;35.55;18.17;;;;;;;8.28;100.00;101890.09;5014163;28;20100;-62
2021/10/28 00:20:54;;;;;;;33.33;17.52;;;;;;;8.22;100.00;101884.66;5016804;28;20029;-61
2021/10/28 00:23:19;;;;;;;35.22;17.67;;;;;;;8.17;100.00;101881.88;5017663;28;20038;-61
2021/10/28 00:25:45;;;;;;;33.28;17.52;;;;;;;8.11;100.00;101879.94;5016717;28;20144;-61
2021/10/28 00:28:10;;;;;;;35.78;18.13;;;;;;;8.11;100.00;101877.31;5014868;28;20108;-62
2021/10/28 00:30:35;;;;;;;35.17;17.88;;;;;;;8.09;100.00;101883.38;5011038;28;20049;-61
2021/10/28 00:33:01;;;;;;;35.45;18.17;;;;;;;8.11;100.00;101876.41;5016196;28;20018;-61
2021/10/28 00:35:27;;;;;;;32.88;18.02;;;;;;;8.10;100.00;101874.63;5019406;28;20079;-61
2021/10/28 00:37:52;;;;;;;37.33;19.13;;;;;;;8.13;100.00;101866.81;5015749;28;20033;-61
2021/10/28 00:40:18;;;;;;;35.60;18.73;;;;;;;8.10;100.00;101874.63;5015778;28;20057;-61
2021/10/28 00:42:44;;;;;;;33.10;18.40;;;;;;;8.11;100.00;101865.84;5014738;28;20030;-62
2021/10/28 00:45:09;;;;;;;32.58;17.92;;;;;;;8.06;100.00;101870.09;5015691;28;20069;-62
2021/10/28 00:47:38;;;;;;;33.85;18.80;;;;;;;8.03;100.00;101870.91;5018223;28;20026;-62
2021/10/28 00:50:05;;;;;;;35.53;19.80;;;;;;;8.01;100.00;101865.59;5015042;28;20112;-62
2021/10/28 00:52:33;;;;;;;37.47;18.52;;;;;;;7.97;100.00;101861.06;5014599;28;20029;-61
2021/10/28 00:54:59;;;;;;;35.47;19.23;;;;;;;7.96;100.00;101861.03;5013972;28;20041;-61
2021/10/28 00:57:24;;;;;;;36.72;19.30;;;;;;;7.90;100.00;101864.34;5014606;28;20029;-62
2021/10/28 00:59:50;;;;;;;35.70;19.88;;;;;;;7.91;100.00;101868.78;5013719;28;20385;-61
2021/10/28 01:02:16;;;;;;;37.03;20.50;;;;;;;7.93;100.00;101863.56;5009468;28;20065;-61
2021/10/28 01:04:41;;;;;;;35.33;18.67;;;;;;;7.87;100.00;101869.53;5014384;28;20116;-61
2021/10/28 01:07:07;;;;;;;35.53;19.23;;;;;;;7.85;100.00;101876.50;5011323;28;20090;-62
2021/10/28 01:09:32;;;;;;;38.13;19.52;;;;;;;7.82;100.00;101858.84;5015957;28;20029;-63
2021/10/28 01:11:58;;;;;;;36.83;20.13;;;;;;;7.80;100.00;101867.53;5012173;28;20029;-61
2021/10/28 01:14:23;;;;;;;39.47;20.35;;;;;;;7.78;100.00;101859.59;5013489;28;20037;-61
2021/10/28 01:16:56;;;;;;;38.83;20.30;;;;;;;7.74;100.00;101859.44;5011755;28;20602;-61
2021/10/28 01:19:22;;;;;;;38.22;20.55;;;;;;;7.76;100.00;101857.75;5004716;28;20034;-61
2021/10/28 01:21:51;;;;;;;36.20;19.75;;;;;;;7.73;100.00;101866.44;5007829;28;20093;-61
2021/10/28 01:24:16;;;;;;;39.28;20.17;;;;;;;7.72;100.00;101866.38;5005701;28;20044;-61
2021/10/28 01:26:42;;;;;;;37.70;20.00;;;;;;;7.66;100.00;101862.72;5002409;28;20109;-61
2021/10/28 01:29:08;;;;;;;39.42;20.58;;;;;;;7.64;100.00;101858.25;5016480;28;20052;-62
2021/10/28 01:31:35;;;;;;;36.95;19.80;;;;;;;7.64;100.00;101851.25;5007701;28;20033;-62
2021/10/28 01:34:04;;;;;;;37.08;20.75;;;;;;;7.64;100.00;101848.59;5011559;28;20022;-61
2021/10/28 01:36:30;;;;;;;38.42;20.75;;;;;;;7.63;100.00;101849.47;5011999;28;20026;-62
2021/10/28 01:38:56;;;;;;;35.72;19.45;;;;;;;7.62;100.00;101854.69;5012225;28;20062;-61
2021/10/28 01:41:22;;;;;;;39.28;20.63;;;;;;;7.64;100.00;101847.72;5004273;28;20382;-61
2021/10/28 01:43:48;;;;;;;38.83;20.40;;;;;;;7.66;100.00;101848.69;5013602;28;20030;-62
2021/10/28 01:46:14;;;;;;;36.20;20.40;;;;;;;7.66;100.00;101852.19;5008739;28;20037;-62
2021/10/28 01:48:41;;;;;;;35.28;19.25;;;;;;;7.62;100.00;101845.03;5014982;28;20038;-61
2021/10/28 01:51:08;;;;;;;35.92;19.90;;;;;;;7.61;100.00;101845.88;5017494;28;20030;-61
2021/10/28 01:53:38;;;;;;;36.30;19.67;;;;;;;7.60;100.00;101841.47;5019897;28;20080;-61
2021/10/28 01:56:05;;;;;;;39.13;19.95;;;;;;;7.57;100.00;101840.47;5020994;28;20071;-62
2021/10/28 01:58:31;;;;;;;36.88;19.90;;;;;;;7.56;100.00;101834.31;5019082;28;20104;-61
2021/10/28 02:00:57;;;;;;;35.47;19.50;;;;;;;7.55;100.00;101827.25;5017954;28;20030;-62
2021/10/28 02:03:22;;;;;;;39.67;19.65;;;;;;;7.52;100.00;101834.19;5011214;28;20076;-62
2021/10/28 02:05:49;;;;;;;39.97;20.30;;;;;;;7.48;100.00;101826.19;5017095;28;20021;-62
2021/10/28 02:08:15;;;;;;;37.85;20.42;;;;;;;7.47;100.00;101824.41;5019357;28;20037;-61
2021/10/28 02:10:40;;;;;;;36.40;20.15;;;;;;;7.41;100.00;101828.56;5019322;28;20061;-62
2021/10/28 02:13:06;;;;;;;37.33;20.38;;;;;;;7.39;100.00;101817.09;5020771;28;20358;-62
2021/10/28 02:15:31;;;;;;;40.95;21.02;;;;;;;7.36;100.00;101820.50;5019982;28;20044;-62
2021/10/28 02:17:57;;;;;;;39.72;21.52;;;;;;;7.37;100.00;101817.03;5010987;28;20064;-61
2021/10/28 02:20:22;;;;;;;38.10;20.50;;;;;;;7.35;100.00;101818.72;5022516;28;20480;-62
2021/10/28 02:22:48;;;;;;;40.10;20.73;;;;;;;7.29;100.00;101822.03;5015388;28;20444;-62
2021/10/28 02:25:14;;;;;;;40.58;21.70;;;;;;;7.27;100.00;101805.31;5013572;28;20050;-61
2021/10/28 02:27:40;;;;;;;40.35;22.08;;;;;;;7.27;100.00;101805.31;5018254;28;20031;-61
2021/10/28 02:30:08;;;;;;;40.22;22.33;;;;;;;7.30;100.00;101804.53;5019168;28;20052;-61
2021/10/28 02:32:34;;;;;;;40.80;21.83;;;;;;;7.26;100.00;101808.78;5015298;28;20381;-62
2021/10/28 02:35:00;;;;;;;42.00;22.48;;;;;;;7.27;100.00;101804.44;5016604;28;20028;-61
2021/10/28 02:37:26;;;;;;;39.92;22.15;;;;;;;7.23;100.00;101795.53;5019203;28;20026;-61
2021/10/28 02:39:51;;;;;;;39.47;21.48;;;;;;;7.17;100.00;101800.59;5014325;28;20025;-61
2021/10/28 02:42:17;;;;;;;42.63;22.25;;;;;;;7.11;100.00;101793.41;5009873;28;20117;-63
2021/10/28 02:44:44;;;;;;;40.28;21.70;;;;;;;7.10;100.00;101795.97;5008859;28;20476;-61
2021/10/28 02:47:10;;;;;;;40.78;22.08;;;;;;;7.07;100.00;101801.13;5012719;28;20354;-61
2021/10/28 02:49:37;;;;;;;41.67;22.55;;;;;;;7.02;100.00;101789.56;5015977;28;20029;-61
2021/10/28 02:52:03;;;;;;;40.30;22.50;;;;;;;7.00;100.00;101788.63;5011856;28;20042;-62
2021/10/28 02:54:29;;;;;;;42.85;22.90;;;;;;;6.97;100.00;101784.16;5009917;28;20032;-61
2021/10/28 02:56:55;;;;;;;40.75;22.58;;;;;;;6.97;100.00;101779.81;5007077;28;20101;-62
2021/10/28 02:59:20;;;;;;;42.70;22.73;;;;;;;6.91;100.00;101779.56;5012940;28;20445;-62
2021/10/28 03:01:50;;;;;;;45.15;22.80;;;;;;;6.91;100.00;101778.69;5012067;28;20033;-61
2021/10/28 03:04:19;;;;;;;40.90;22.95;;;;;;;6.89;100.00;101772.50;5014962;28;20105;-62
2021/10/28 03:06:45;;;;;;;41.78;22.73;;;;;;;6.85;100.00;101771.47;5006619;28;20022;-61
2021/10/28 03:09:14;;;;;;;42.83;22.58;;;;;;;6.84;100.00;101766.16;5018393;28;20041;-62
2021/10/28 03:11:41;;;;;;;42.35;23.05;;;;;;;6.84;100.00;101751.28;5010526;28;20022;-61
2021/10/28 03:14:09;;;;;;;44.50;23.52;;;;;;;6.82;100.00;101762.59;5017512;28;20103;-61
2021/10/28 03:27:14;;;;;;;45.65;23.75;;;;;;;6.79;100.00;101753.75;5014167;28;20080;-61
2021/10/28 03:29:39;;;;;;;44.13;23.42;;;;;;;6.78;100.00;101748.44;5012928;28;20076;-61
2021/10/28 03:32:05;;;;;;;43.58;23.73;;;;;;;6.74;100.00;101751.81;5013820;28;20058;-62
2021/10/28 03:34:31;;;;;;;44.63;23.73;;;;;;;6.75;100.00;101736.09;5013867;28;20485;-63
2021/10/28 03:40:03;;;;;;;43.33;23.85;;;;;;;6.73;100.00;101739.53;5014853;28;20084;-61
2021/10/28 03:58:28;;;;;;;46.75;25.02;;;;;;;6.67;100.00;101720.91;5014209;28;20092;-61
2021/10/28 04:01:29;;;;;;;47.72;25.13;;;;;;;6.68;100.00;101723.59;5019707;28;20045;-61
2021/10/28 04:17:37;;;;;;;49.95;26.02;;;;;;;6.66;100.00;101713.88;5012009;28;20122;-61
2021/10/28 04:30:43;;;;;;;50.05;26.65;;;;;;;6.55;100.00;101711.78;5015825;28;20448;-61
2021/10/28 04:33:09;;;;;;;47.70;25.50;;;;;;;6.55;100.00;101724.00;5013653;28;20057;-61
2021/10/28 04:35:34;;;;;;;47.97;25.52;;;;;;;6.54;100.00;101709.06;5019324;28;20021;-61
2021/10/28 04:37:59;;;;;;;47.45;25.63;;;;;;;6.52;100.00;101713.41;5010142;28;20021;-61
2021/10/28 04:40:25;;;;;;;49.00;25.55;;;;;;;6.52;100.00;101714.28;5006171;28;20030;-62
2021/10/28 04:42:50;;;;;;;48.30;24.92;;;;;;;6.51;100.00;101723.03;5015268;28;20028;-62
2021/10/28 04:45:16;;;;;;;49.97;25.63;;;;;;;6.56;100.00;101716.19;5005724;28;20026;-61
2021/10/28 04:47:41;;;;;;;47.75;25.67;;;;;;;6.55;100.00;101713.50;5015759;28;20542;-61
2021/10/28 04:50:07;;;;;;;50.30;26.13;;;;;;;6.55;100.00;101721.38;5009781;28;20457;-61
2021/10/28 04:52:32;;;;;;;51.00;26.77;;;;;;;6.53;100.00;101716.06;5007210;28;20420;-62
2021/10/28 04:54:58;;;;;;;48.22;25.48;;;;;;;6.52;100.00;101722.16;5015960;28;20025;-61
2021/10/28 04:57:23;;;;;;;48.58;25.77;;;;;;;6.51;100.00;101715.13;5009882;28;20107;-62
2021/10/28 04:59:48;;;;;;;49.47;27.35;;;;;;;6.51;100.00;101709.88;5013321;28;20059;-62
2021/10/28 05:02:14;;;;;;;49.60;26.70;;;;;;;6.47;100.00;101713.25;5014895;28;20072;-61
2021/10/28 05:04:39;;;;;;;48.90;26.33;;;;;;;6.45;100.00;101707.94;5009962;28;20046;-62
2021/10/28 05:07:04;;;;;;;50.92;26.98;;;;;;;6.50;100.00;101702.84;5015930;28;20485;-62
2021/10/28 05:09:32;;;;;;;51.40;26.63;;;;;;;6.48;100.00;101703.63;5011607;28;20029;-61
2021/10/28 05:11:57;;;;;;;56.10;26.83;;;;;;;6.49;100.00;101701.03;5014915;28;20083;-62
2021/10/28 05:14:24;;;;;;;52.38;27.08;;;;;;;6.50;100.00;101697.59;5017771;28;20037;-61
2021/10/28 05:16:58;;;;;;;51.70;27.77;;;;;;;6.47;100.00;101694.84;5016548;28;20033;-61
2021/10/28 05:19:25;;;;;;;53.45;29.00;;;;;;;6.52;100.00;101701.13;5012788;28;20022;-61
2021/10/28 05:21:50;;;;;;;53.28;27.85;;;;;;;6.49;100.00;101698.41;5011264;28;20028;-62
2021/10/28 05:24:16;;;;;;;53.45;27.27;;;;;;;6.47;100.00;101702.72;5014380;28;20120;-63
2021/10/28 05:26:41;;;;;;;53.05;28.42;;;;;;;6.44;100.00;101702.63;5013403;28;20174;-62
2021/10/28 05:29:06;;;;;;;52.63;28.80;;;;;;;6.45;100.00;101697.44;5017666;28;20034;-62
2021/10/28 05:31:32;;;;;;;57.53;28.92;;;;;;;6.42;100.00;101689.44;5009096;28;20461;-62
2021/10/28 05:33:57;;;;;;;51.60;27.65;;;;;;;6.40;100.00;101685.84;5013345;28;20064;-63
2021/10/28 05:36:22;;;;;;;55.65;28.73;;;;;;;6.41;100.00;101684.13;5007993;28;20031;-63
2021/10/28 05:38:48;;;;;;;55.88;28.23;;;;;;;6.40;100.00;101684.97;5015791;28;20034;-62
2021/10/28 05:41:13;;;;;;;56.70;29.00;;;;;;;6.41;100.00;101676.25;5013510;28;20049;-63
2021/10/28 05:43:38;;;;;;;53.20;28.40;;;;;;;6.38;100.00;101665.66;5011708;28;20026;-63
2021/10/28 05:46:04;;;;;;;53.55;28.33;;;;;;;6.36;100.00;101662.94;5011692;28;20074;-63
2021/10/28 05:48:30;;;;;;;54.40;28.45;;;;;;;6.34;100.00;101661.13;5013485;28;20485;-64
2021/10/28 05:50:55;;;;;;;56.47;29.13;;;;;;;6.33;100.00;101661.97;5011789;28;20030;-62
2021/10/28 05:53:21;;;;;;;52.30;28.45;;;;;;;6.30;100.00;101661.84;5016679;28;20025;-63
2021/10/28 05:55:48;;;;;;;56.20;28.40;;;;;;;6.28;100.00;101662.69;5008226;28;20109;-63
2021/10/28 05:58:13;;;;;;;55.28;28.65;;;;;;;6.32;100.00;101660.16;5009473;28;20032;-63
2021/10/28 06:00:39;;;;;;;55.75;30.08;;;;;;;6.33;100.00;101659.34;5005851;28;20022;-62
2021/10/28 06:03:04;;;;;;;56.53;29.17;;;;;;;6.28;100.00;101662.69;5011827;28;20018;-63
2021/10/28 06:05:30;;;;;;;56.55;29.40;;;;;;;6.33;100.00;101656.72;5012399;28;20049;-63
2021/10/28 06:07:55;;;;;;;55.83;28.63;;;;;;;6.32;100.00;101660.16;5017527;28;20485;-64
2021/10/28 06:10:20;;;;;;;55.75;29.17;;;;;;;6.31;100.00;101654.03;5007381;28;20026;-63
2021/10/28 06:12:48;;;;;;;55.45;29.25;;;;;;;6.29;100.00;101666.19;5010511;28;20369;-63
2021/10/28 06:15:15;;;;;;;58.50;29.92;;;;;;;6.25;100.00;101664.31;5008672;28;20543;-63
2021/10/28 06:18:13;;;;;;;56.90;30.42;;;;;;;6.24;100.00;101667.78;5013264;28;20033;-62
2021/10/28 06:20:42;;;;;;;61.45;30.67;;;;;;;6.24;100.00;101666.03;5008426;28;20406;-63
2021/10/28 06:23:08;;;;;;;60.47;31.02;;;;;;;6.23;100.00;101651.16;4997871;28;20034;-63
2021/10/28 06:25:34;;;;;;;60.92;30.98;;;;;;;6.21;100.00;101652.81;5014021;28;20076;-64
2021/10/28 06:27:59;;;;;;;62.03;31.42;;;;;;;6.19;100.00;101638.75;5011549;28;20027;-63
2021/10/28 06:30:25;;;;;;;64.18;31.50;;;;;;;6.20;100.00;101639.63;5016056;28;20025;-62
2021/10/28 06:32:54;;;;;;;62.17;32.30;;;;;;;6.21;100.00;101650.19;5015656;28;20021;-62
2021/10/28 06:35:21;;;;;;;63.10;32.05;;;;;;;6.20;100.00;101644.88;5014700;28;20032;-62
2021/10/28 06:37:48;;;;;;;64.88;32.83;;;;;;;6.21;100.00;101644.94;5016613;28;20076;-62
2021/10/28 06:40:16;;;;;;;66.60;33.70;;;;;;;6.19;100.00;101649.25;5010793;28;20034;-63
2021/10/28 06:42:42;;;;;;;67.63;33.95;;;;;;;6.20;100.00;101635.25;5017225;28;20477;-62
2021/10/28 06:45:08;;;;;;;66.47;33.53;;;;;;;6.20;100.00;101635.25;5007433;28;20038;-63
2021/10/28 06:47:33;;;;;;;65.13;34.55;;;;;;;6.18;100.00;101631.69;5009089;28;20022;-63
2021/10/28 06:50:06;;;;;;;67.82;34.08;;;;;;;6.25;100.00;101635.44;5011118;28;20037;-62
2021/10/28 06:52:57;;;;;;;71.82;36.22;;;;;;;6.30;100.00;101640.84;5017452;28;20347;-64
2021/10/28 07:03:31;;;;;;;72.65;37.85;;;;;;;6.35;100.00;101648.03;4970961;28;20070;-64
2021/10/28 07:06:20;;;;;;;74.82;38.63;;;;;;;6.37;100.00;101658.59;4975998;28;20051;-62
2021/10/28 07:08:48;;;;;;;70.38;37.67;;;;;;;6.39;100.00;101646.41;4970495;28;20054;-62
2021/10/28 07:11:20;;;;;;;73.80;38.78;;;;;;;6.43;100.00;101645.66;4971808;28;20043;-62
2021/10/28 07:13:48;;;;;;;76.55;38.38;;;;;;;6.43;100.00;101646.56;4971295;28;20037;-63
2021/10/28 07:19:13;;;;;;;74.95;38.20;;;;;;;6.51;100.00;101652.09;4974863;28;20046;-64
2021/10/28 08:23:26;;;;;;;42.17;23.33;;;;;;;8.95;100.00;101632.75;4958360;28;20503;-62
2021/10/28 08:28:54;;;;;;;41.38;22.42;;;;;;;9.11;100.00;101622.56;4959492;28;20136;-62
2021/10/28 08:31:20;;;;;;;41.08;24.10;;;;;;;9.20;100.00;101628.03;4962696;28;20030;-62
2021/10/28 08:33:49;;;;;;;40.38;22.05;;;;;;;9.29;100.00;101629.97;4960128;28;20039;-62
2021/10/28 08:36:27;;;;;;;40.70;23.13;;;;;;;9.41;100.00;101617.94;4962785;28;20035;-64
2021/10/28 08:38:53;;;;;;;40.95;22.63;;;;;;;9.59;100.00;101619.19;4958752;28;20046;-64
2021/10/28 08:41:20;;;;;;;39.40;22.02;;;;;;;9.69;100.00;101615.00;4963732;28;20050;-62
2021/10/28 08:43:47;;;;;;;43.72;23.08;;;;;;;9.81;100.00;101623.16;4959717;28;20211;-63
2021/10/28 08:46:14;;;;;;;41.08;21.77;;;;;;;9.99;100.00;101611.16;4969370;28;20092;-62
2021/10/28 08:48:42;;;;;;;39.67;22.40;;;;;;;10.16;100.00;101608.84;5015810;28;20034;-63
2021/10/28 08:53:53;;;;;;;38.30;20.80;;;;;;;10.37;100.00;101609.28;5013440;28;20041;-63
2021/10/28 09:23:58;;;;;;;37.25;20.40;;;;;;;11.26;95.26;101567.41;5012201;28;20052;-68
2021/10/28 09:29:25;;;;;;;34.85;19.98;;;;;;;11.32;93.54;101559.53;5015171;28;20045;-64
2021/10/28 09:43:43;;;;;;;35.72;19.67;;;;;;;12.37;89.11;101535.91;5006967;28;20129;-63
2021/10/28 09:51:31;;;;;;;34.42;17.85;;;;;;;13.11;81.54;101524.91;5012610;28;20037;-64
2021/10/28 09:59:54;;;;;;;32.70;16.52;;;;;;;13.65;78.84;101527.78;5011325;28;20028;-62
2021/10/28 10:02:32;;;;;;;30.73;16.60;;;;;;;13.83;76.42;101526.91;5012180;28;20100;-63
2021/10/28 10:05:05;;;;;;;31.23;16.63;;;;;;;14.90;74.17;101526.00;5010504;28;20042;-69
2021/10/28 10:07:32;;;;;;;31.48;16.95;;;;;;;15.73;69.75;101518.53;5010296;28;20034;-67
2021/10/28 10:10:01;;;;;;;33.92;17.48;;;;;;;16.16;66.09;101519.16;5012618;28;20119;-68
2021/10/28 10:12:27;;;;;;;30.73;15.98;;;;;;;15.94;64.87;101505.09;5010003;28;20034;-69
2021/10/28 10:14:53;;;;;;;30.38;16.23;;;;;;;15.84;66.70;101511.38;5005917;28;20033;-68
2021/10/28 10:17:19;;;;;;;29.85;15.88;;;;;;;16.55;64.37;101513.47;5015326;28;20108;-69
2021/10/28 10:19:49;;;;;;;30.90;16.13;;;;;;;17.58;60.28;101506.91;5011360;28;20030;-68
2021/10/28 10:25:50;;;;;;;29.75;15.30;;;;;;;19.36;55.93;101502.91;5009538;28;20088;-64
2021/10/28 12:14:36;;;;;;;22.60;9.38;;;;;;;25.01;35.37;101338.03;5013552;28;20088;-70
2021/10/28 12:28:01;;;;;;;21.10;8.27;;;;;;;27.00;32.95;101332.19;5009421;28;20053;-65
2021/10/28 12:50:34;;;;;;;19.17;6.72;;;;;;;26.63;31.44;101291.75;5008423;28;20393;-64
2021/10/28 12:53:25;;;;;;;19.58;6.88;;;;;;;25.42;32.42;101290.97;5009303;28;20060;-64
2021/10/28 13:06:43;;;;;;;19.85;6.18;;;;;;;25.20;33.99;101271.25;4973380;28;20038;-65
2021/10/28 14:01:05;;;;;;;19.95;5.85;;;;;;;27.57;30.63;101204.06;5016419;28;20397;-69
2021/10/28 14:22:54;;;;;;;17.27;5.38;;;;;;;26.65;30.46;101197.69;5012567;28;20048;-65
2021/10/28 14:28:13;;;;;;;17.15;5.00;;;;;;;25.43;32.55;101185.38;5007056;28;20041;-70
2021/10/28 15:35:47;;;;;;;17.60;5.45;;;;;;;24.23;35.33;101138.16;4976923;28;20030;-62
2021/10/28 15:38:22;;;;;;;19.35;5.50;;;;;;;23.66;35.95;101141.69;4977251;28;20482;-62
2021/10/28 15:41:09;;;;;;;17.13;5.15;;;;;;;23.40;37.33;101144.66;4977043;28;20154;-62
2021/10/28 15:55:00;;;;;;;18.10;5.50;;;;;;;21.21;41.06;101130.81;4950800;28;20046;-65
2021/10/28 15:57:28;;;;;;;17.30;5.50;;;;;;;19.96;44.39;101131.31;4953847;29;20043;-65
2021/10/28 16:00:08;;;;;;;17.77;5.53;;;;;;;19.21;46.22;101132.53;4953227;29;20066;-66
2021/10/28 16:21:56;;;;;;;19.38;6.07;;;;;;;17.56;51.62;101106.91;4978551;28;20047;-63
2021/10/28 16:24:26;;;;;;;20.33;5.95;;;;;;;17.57;52.98;101114.91;4978996;28;20038;-64
2021/10/28 16:26:52;;;;;;;20.35;6.00;;;;;;;17.66;52.55;101120.97;4976520;28;20068;-63
2021/10/28 16:29:18;;;;;;;21.13;6.32;;;;;;;17.41;52.72;101111.66;4973782;28;20572;-63
2021/10/28 16:31:44;;;;;;;19.80;6.60;;;;;;;17.35;53.29;101114.44;4963097;28;20044;-62
2021/10/28 16:34:11;;;;;;;21.13;6.47;;;;;;;17.21;53.67;101104.06;4958050;28;20231;-64
2021/10/28 16:36:37;;;;;;;19.38;5.93;;;;;;;17.08;54.35;101098.06;4959310;28;20038;-63
2021/10/28 16:39:09;;;;;;;18.63;6.30;;;;;;;16.99;54.90;101100.88;4959804;28;20042;-64
2021/10/28 16:41:35;;;;;;;20.23;6.55;;;;;;;16.83;55.59;101088.69;4957234;28;20110;-62
2021/10/28 16:44:01;;;;;;;18.17;6.07;;;;;;;16.87;56.09;101091.31;4988124;28;20033;-63
2021/10/28 16:46:27;;;;;;;20.38;6.03;;;;;;;16.78;55.51;101091.44;5012828;28;20033;-62
2021/10/28 16:48:53;;;;;;;21.25;6.10;;;;;;;16.58;55.88;101093.56;5014684;28;20037;-62
2021/10/28 16:51:18;;;;;;;19.45;6.40;;;;;;;16.54;56.62;101095.38;5012578;28;20022;-62
2021/10/28 16:53:45;;;;;;;19.92;6.35;;;;;;;16.44;57.15;101096.44;5010694;28;20049;-61
2021/10/28 16:56:14;;;;;;;22.08;6.53;;;;;;;16.16;57.52;101092.44;5012754;28;20022;-64
2021/10/28 16:58:39;;;;;;;22.30;6.50;;;;;;;16.19;58.22;101099.50;5006924;28;20040;-64
2021/10/28 17:01:05;;;;;;;18.60;6.50;;;;;;;15.89;58.68;101096.38;5010792;28;20378;-66
2021/10/28 17:03:30;;;;;;;21.27;6.70;;;;;;;15.97;59.03;101089.13;5004546;28;20069;-64
2021/10/28 17:05:55;;;;;;;20.75;6.80;;;;;;;15.98;58.75;101084.72;5007356;28;20018;-64
2021/10/28 17:08:21;;;;;;;21.77;6.90;;;;;;;15.83;59.07;101088.47;5001783;28;20072;-65
2021/10/28 17:10:46;;;;;;;20.88;7.10;;;;;;;15.83;59.71;101080.47;5007080;28;20037;-62
2021/10/28 17:13:13;;;;;;;21.70;7.00;;;;;;;15.79;59.97;101086.75;5012364;28;20026;-64
2021/10/28 17:15:38;;;;;;;20.23;6.55;;;;;;;15.46;60.45;101076.44;5012541;28;20037;-65
2021/10/28 17:18:03;;;;;;;21.35;6.90;;;;;;;15.60;60.25;101073.63;5012927;28;20036;-63
2021/10/28 17:20:34;;;;;;;21.45;7.30;;;;;;;15.63;60.56;101081.56;5013050;28;20025;-63
2021/10/28 17:23:00;;;;;;;19.92;6.82;;;;;;;15.54;60.70;101072.81;5013008;28;20025;-70
2021/10/28 17:25:26;;;;;;;20.55;7.15;;;;;;;15.44;61.17;101069.41;5013154;28;20045;-71
2021/10/28 17:27:52;;;;;;;22.25;6.88;;;;;;;15.40;61.19;101078.31;5012778;28;20409;-70
2021/10/28 17:30:17;;;;;;;21.65;7.70;;;;;;;15.26;61.90;101078.47;5012627;28;20033;-70
2021/10/28 17:32:44;;;;;;;22.70;7.75;;;;;;;15.19;62.30;101079.44;5013016;28;20436;-71
2021/10/28 17:35:12;;;;;;;22.67;7.57;;;;;;;15.15;61.76;101073.28;5007732;28;20071;-63
2021/10/28 17:37:37;;;;;;;22.00;7.50;;;;;;;15.14;62.44;101083.06;5010249;28;20173;-63
2021/10/28 17:40:05;;;;;;;22.23;8.07;;;;;;;15.11;62.60;101082.19;5006894;28;20521;-63
2021/10/28 17:42:30;;;;;;;23.58;8.15;;;;;;;15.08;62.63;101071.56;5010957;28;20072;-62
2021/10/28 17:44:57;;;;;;;22.35;7.88;;;;;;;14.87;63.13;101070.00;5011758;28;20061;-62
2021/10/28 17:47:24;;;;;;;22.98;8.30;;;;;;;14.78;63.46;101082.50;5013424;28;20065;-63
2021/10/28 17:49:51;;;;;;;22.92;8.20;;;;;;;14.66;64.60;101073.75;5011943;28;20083;-63
2021/10/28 17:52:17;;;;;;;21.45;8.10;;;;;;;14.61;64.64;101073.78;5015091;28;20037;-63
2021/10/28 17:54:43;;;;;;;23.42;8.48;;;;;;;14.56;64.92;101073.81;5010272;28;20033;-64
2021/10/28 17:57:09;;;;;;;22.80;8.07;;;;;;;14.53;65.00;101064.97;5009492;28;20469;-63
2021/10/28 17:59:34;;;;;;;22.08;8.13;;;;;;;14.44;65.47;101069.44;5012316;28;20140;-64
2021/10/28 18:02:00;;;;;;;22.92;8.15;;;;;;;14.42;66.06;101063.28;5011841;28;20111;-63
2021/10/28 18:04:25;;;;;;;22.83;8.60;;;;;;;14.35;66.04;101071.31;5017843;28;20477;-64
2021/10/28 18:06:51;;;;;;;23.08;8.40;;;;;;;14.34;66.24;101058.91;5012369;28;20042;-65
2021/10/28 18:09:18;;;;;;;22.92;8.57;;;;;;;14.26;66.42;101065.16;5015141;28;20128;-65
2021/10/28 18:11:44;;;;;;;22.45;8.55;;;;;;;14.22;66.50;101068.75;5010406;28;20025;-61
2021/10/28 18:14:12;;;;;;;24.02;8.98;;;;;;;14.13;66.98;101074.13;5016385;28;20072;-64
2021/10/28 18:16:40;;;;;;;22.45;8.57;;;;;;;14.05;67.36;101067.97;5009141;28;20069;-62
2021/10/28 18:19:07;;;;;;;23.95;9.73;;;;;;;13.94;67.33;101071.59;5007722;28;20450;-62
2021/10/28 18:21:34;;;;;;;22.95;8.80;;;;;;;13.87;67.88;101071.63;5009116;28;20037;-62
2021/10/28 18:23:59;;;;;;;23.23;8.73;;;;;;;13.77;68.32;101070.78;5008504;28;20089;-62
2021/10/28 18:26:25;;;;;;;23.35;9.30;;;;;;;13.70;68.30;101074.38;5009380;28;20230;-62
2021/10/28 18:28:51;;;;;;;25.50;9.00;;;;;;;13.67;68.73;101058.44;5011790;28;20117;-62
2021/10/28 18:31:17;;;;;;;25.52;9.35;;;;;;;13.63;68.99;101067.31;5011929;28;20026;-63
2021/10/28 18:33:43;;;;;;;22.77;8.85;;;;;;;13.58;69.08;101059.38;5013247;28;20550;-61
2021/10/28 18:36:11;;;;;;;22.48;9.18;;;;;;;13.56;69.54;101054.06;5014282;28;20057;-61
2021/10/28 18:38:36;;;;;;;23.58;9.02;;;;;;;13.48;69.71;101061.19;5017214;28;20045;-61
2021/10/28 18:41:03;;;;;;;23.70;9.50;;;;;;;13.37;69.64;101060.38;5019251;28;20093;-61
2021/10/28 18:43:28;;;;;;;23.73;9.77;;;;;;;13.22;70.06;101056.84;5015180;28;20021;-61
2021/10/28 18:45:54;;;;;;;25.00;10.23;;;;;;;13.27;70.44;101058.59;5018085;28;20087;-61
2021/10/28 18:48:21;;;;;;;23.83;10.40;;;;;;;13.20;70.68;101055.06;5013519;28;20120;-61
2021/10/28 18:50:47;;;;;;;23.45;10.00;;;;;;;13.19;70.76;101056.84;5014689;28;20034;-64
2021/10/28 18:53:12;;;;;;;24.35;10.15;;;;;;;13.12;71.01;101052.44;5021526;28;20025;-63
2021/10/28 18:55:39;;;;;;;23.02;10.48;;;;;;;13.12;71.17;101060.41;5016924;28;20030;-63
2021/10/28 18:58:04;;;;;;;24.40;10.40;;;;;;;13.05;71.29;101062.19;5021659;28;20029;-63
2021/10/28 19:00:30;;;;;;;24.70;10.32;;;;;;;13.05;71.51;101058.66;5014069;28;20030;-62
2021/10/28 19:02:57;;;;;;;24.70;10.80;;;;;;;12.95;71.80;101059.56;5015009;28;20022;-63
2021/10/28 19:05:22;;;;;;;24.88;10.30;;;;;;;12.89;72.11;101053.38;5015586;28;20022;-63
2021/10/28 19:07:48;;;;;;;26.35;10.93;;;;;;;12.89;72.00;101049.84;5015441;28;20033;-62
2021/10/28 19:10:14;;;;;;;25.90;10.88;;;;;;;12.79;72.37;101045.44;5015098;28;20385;-62
2021/10/28 19:12:43;;;;;;;25.40;10.95;;;;;;;12.78;72.61;101051.63;5015202;28;20481;-63
2021/10/28 19:15:09;;;;;;;24.25;10.90;;;;;;;12.72;72.85;101044.56;5015134;28;20374;-67
2021/10/28 19:17:36;;;;;;;25.05;10.55;;;;;;;12.70;72.83;101041.91;5015237;28;20037;-66
2021/10/28 19:20:03;;;;;;;27.10;10.50;;;;;;;12.69;72.93;101044.56;5015386;28;20030;-66
2021/10/28 19:22:32;;;;;;;25.65;10.57;;;;;;;12.65;73.19;101037.50;5015077;28;20029;-65
2021/10/28 19:25:00;;;;;;;25.45;10.90;;;;;;;12.58;73.54;101041.03;5014781;28;20026;-63
2021/10/28 19:27:26;;;;;;;27.35;12.00;;;;;;;12.51;73.74;101027.78;5015006;28;20113;-65
2021/10/28 19:29:57;;;;;;;25.60;11.38;;;;;;;12.47;73.74;101022.50;5015004;28;20048;-70
2021/10/28 19:32:24;;;;;;;24.43;11.13;;;;;;;12.37;74.37;101027.78;5011672;28;20037;-67
2021/10/28 19:34:50;;;;;;;24.20;11.35;;;;;;;12.34;74.43;101026.91;5014814;28;20034;-67
2021/10/28 19:47:27;;;;;;;25.60;12.25;;;;;;;12.00;76.17;101014.53;5012439;28;20119;-69
2021/10/28 19:49:53;;;;;;;26.73;12.40;;;;;;;11.97;76.27;101006.56;5014502;28;20026;-71
2021/10/28 19:52:18;;;;;;;27.60;12.73;;;;;;;11.92;76.77;101007.41;5014502;28;20030;-71
2021/10/28 19:54:47;;;;;;;26.40;12.77;;;;;;;11.91;77.24;101011.84;5014612;28;20151;-71
2021/10/28 19:57:18;;;;;;;28.00;13.20;;;;;;;11.90;77.01;101010.06;5014245;28;20476;-72
2021/10/28 20:03:23;;;;;;;28.02;13.77;;;;;;;11.81;77.12;101005.63;5011992;28;20064;-71
2021/10/28 20:13:23;;;;;;;28.70;13.73;;;;;;;11.60;77.91;101013.53;5014571;28;20080;-70